createdAt,value
2017-09-13T00:00:40.412Z,10.4
2017-09-13T00:01:40.411Z,10.34
2017-09-13T00:02:40.407Z,10.36
2017-09-13T00:03:40.740Z,10.32
2017-09-13T00:04:40.376Z,10.4
2017-09-13T00:05:40.669Z,10.36
2017-09-13T00:06:40.371Z,10.36
2017-09-13T00:07:40.043Z,10.33
2017-09-13T00:08:40.339Z,10.4
2017-09-13T00:09:40.648Z,10.36
2017-09-13T00:10:40.629Z,10.32
2017-09-13T00:11:40.629Z,10.3
2017-09-13T00:12:40.627Z,10.4
2017-09-13T00:13:40.616Z,10.3
2017-09-13T00:14:40.594Z,10.36
2017-09-13T00:15:40.604Z,10.27
2017-09-13T00:16:40.590Z,10.38
2017-09-13T00:17:40.584Z,10.29
2017-09-13T00:18:40.579Z,10.3
2017-09-13T00:19:40.554Z,10.26
2017-09-13T00:20:40.238Z,10.33
2017-09-13T00:21:39.933Z,10.3
2017-09-13T00:22:40.528Z,10.4
2017-09-13T00:23:40.529Z,10.45
2017-09-13T00:24:40.527Z,10.3
2017-09-13T00:25:40.521Z,10.3
2017-09-13T00:26:40.517Z,10.26
2017-09-13T00:27:40.494Z,10.3
2017-09-13T00:28:40.169Z,10.33
2017-09-13T00:29:39.856Z,10.32
2017-09-13T00:30:40.467Z,10.32
2017-09-13T00:31:40.467Z,10.26
2017-09-13T00:32:39.840Z,10.34
2017-09-13T00:33:40.434Z,10.2
2017-09-13T00:34:40.426Z,10.27
2017-09-13T00:35:40.440Z,10.27
2017-09-13T00:36:40.412Z,10.27
2017-09-13T00:37:40.106Z,10.23
2017-09-13T00:38:40.105Z,10.29
2017-09-13T00:39:40.385Z,10.27
2017-09-13T00:40:40.395Z,10.25
2017-09-13T00:41:40.382Z,10.26
2017-09-13T00:42:40.368Z,10.22
2017-09-13T00:43:40.356Z,10.17
2017-09-13T00:44:40.344Z,10.23
2017-09-13T00:45:40.343Z,10.22
2017-09-13T00:46:40.338Z,10.27
2017-09-13T00:47:40.316Z,10.17
2017-09-13T00:48:40.312Z,10.15
2017-09-13T00:49:39.989Z,10.22
2017-09-13T00:50:40.299Z,10.18
2017-09-13T00:51:39.991Z,10.2
2017-09-13T00:52:40.277Z,10.2
2017-09-13T00:53:40.264Z,10.18
2017-09-13T00:54:39.961Z,10.14
2017-09-13T00:55:39.946Z,10.11
2017-09-13T00:56:39.924Z,10.08
2017-09-13T00:57:39.926Z,10.11
2017-09-13T00:58:40.220Z,10.07
2017-09-13T00:59:40.217Z,10.09
2017-09-13T01:00:40.203Z,10.04
2017-09-13T01:01:40.244Z,10.11
2017-09-13T01:02:40.189Z,10.09
2017-09-13T01:03:40.177Z,10.12
2017-09-13T01:04:40.175Z,10.01
2017-09-13T01:05:39.547Z,10.08
2017-09-13T01:06:39.854Z,10.02
2017-09-13T01:07:39.522Z,9.94
2017-09-13T01:08:39.827Z,10.04
2017-09-13T01:09:40.140Z,10.04
2017-09-13T01:10:40.134Z,10.04
2017-09-13T01:11:39.806Z,10.04
2017-09-13T01:12:39.796Z,9.9
2017-09-13T01:13:40.109Z,9.94
2017-09-13T01:14:40.083Z,10.02
2017-09-13T01:15:40.386Z,9.97
2017-09-13T01:16:39.759Z,9.97
2017-09-13T01:17:40.066Z,9.99
2017-09-13T01:18:40.053Z,10.01
2017-09-13T01:19:39.728Z,10.05
2017-09-13T01:20:40.037Z,9.99
2017-09-13T01:21:40.029Z,9.91
2017-09-13T01:22:39.721Z,9.9
2017-09-13T01:23:40.010Z,9.91
2017-09-13T01:24:40.017Z,9.97
2017-09-13T01:25:40.004Z,9.91
2017-09-13T01:26:40.006Z,9.94
2017-09-13T01:27:39.658Z,9.89
2017-09-13T01:28:39.971Z,9.96
2017-09-13T01:29:39.968Z,9.97
2017-09-13T01:30:39.948Z,9.9
2017-09-13T01:31:39.943Z,9.89
2017-09-13T01:32:39.925Z,9.93
2017-09-13T01:33:39.620Z,9.94
2017-09-13T01:34:39.610Z,9.94
2017-09-13T01:35:39.600Z,9.83
2017-09-13T01:36:39.896Z,9.87
2017-09-13T01:37:39.879Z,9.79
2017-09-13T01:38:39.562Z,9.79
2017-09-13T01:39:39.882Z,9.87
2017-09-13T01:40:39.858Z,9.83
2017-09-13T01:41:39.842Z,9.84
2017-09-13T01:42:39.838Z,9.83
2017-09-13T01:43:39.829Z,9.86
2017-09-13T01:44:39.825Z,9.84
2017-09-13T01:45:39.811Z,9.89
2017-09-13T01:46:40.261Z,9.84
2017-09-13T01:47:39.490Z,9.86
2017-09-13T01:48:39.482Z,9.83
2017-09-13T01:49:39.788Z,9.86
2017-09-13T01:50:39.463Z,9.9
2017-09-13T01:51:39.791Z,9.87
2017-09-13T01:52:39.750Z,9.84
2017-09-13T01:53:39.756Z,9.78
2017-09-13T01:54:39.744Z,9.87
2017-09-13T01:55:39.716Z,9.81
2017-09-13T01:56:39.416Z,9.84
2017-09-13T01:57:39.715Z,9.84
2017-09-13T01:58:39.387Z,9.93
2017-09-13T01:59:39.386Z,9.87
2017-09-13T02:00:39.686Z,9.83
2017-09-13T02:01:39.674Z,9.84
2017-09-13T02:02:39.667Z,9.87
2017-09-13T02:03:39.657Z,9.86
2017-09-13T02:04:39.646Z,9.76
2017-09-13T02:05:39.636Z,9.89
2017-09-13T02:06:39.315Z,9.87
2017-09-13T02:07:39.311Z,9.79
2017-09-13T02:08:39.294Z,9.79
2017-09-13T02:09:39.605Z,9.83
2017-09-13T02:10:39.605Z,9.76
2017-09-13T02:11:39.590Z,9.75
2017-09-13T02:12:39.582Z,9.79
2017-09-13T02:13:39.257Z,9.81
2017-09-13T02:14:39.267Z,9.76
2017-09-13T02:15:39.554Z,9.86
2017-09-13T02:16:39.545Z,9.78
2017-09-13T02:17:39.477Z,9.76
2017-09-13T02:18:39.523Z,9.75
2017-09-13T02:19:39.514Z,9.81
2017-09-13T02:20:39.506Z,9.83
2017-09-13T02:21:39.497Z,9.79
2017-09-13T02:22:39.179Z,9.79
2017-09-13T02:23:39.485Z,9.79
2017-09-13T02:24:39.469Z,9.71
2017-09-13T02:25:39.462Z,9.83
2017-09-13T02:26:39.443Z,9.83
2017-09-13T02:27:39.439Z,9.78
2017-09-13T02:28:39.430Z,9.79
2017-09-13T02:29:39.428Z,9.87
2017-09-13T02:30:39.411Z,9.76
2017-09-13T02:31:39.403Z,9.79
2017-09-13T02:32:39.409Z,9.86
2017-09-13T02:33:39.387Z,9.76
2017-09-13T02:34:39.082Z,9.76
2017-09-13T02:35:39.381Z,9.81
2017-09-13T02:36:39.372Z,9.76
2017-09-13T02:37:39.046Z,9.74
2017-09-13T02:38:39.346Z,9.86
2017-09-13T02:39:39.347Z,9.83
2017-09-13T02:40:39.012Z,9.76
2017-09-13T02:41:39.316Z,9.78
2017-09-13T02:42:39.313Z,9.86
2017-09-13T02:43:39.304Z,9.91
2017-09-13T02:44:39.302Z,9.89
2017-09-13T02:45:39.272Z,9.9
2017-09-13T02:46:39.285Z,10.01
2017-09-13T02:47:39.265Z,9.91
2017-09-13T02:48:39.254Z,9.89
2017-09-13T02:49:38.937Z,10.04
2017-09-13T02:50:39.239Z,9.9
2017-09-13T02:51:39.228Z,9.9
2017-09-13T02:52:39.224Z,9.91
2017-09-13T02:53:39.212Z,9.94
2017-09-13T02:54:39.209Z,10.02
2017-09-13T02:55:39.186Z,9.96
2017-09-13T02:56:39.186Z,9.97
2017-09-13T02:57:39.183Z,10.07
2017-09-13T02:58:39.188Z,10.08
2017-09-13T02:59:39.146Z,10.12
2017-09-13T03:00:39.159Z,10.14
2017-09-13T03:01:39.135Z,10.07
2017-09-13T03:02:39.130Z,10.18
2017-09-13T03:03:39.116Z,10.09
2017-09-13T03:04:39.113Z,10.17
2017-09-13T03:05:38.788Z,10.2
2017-09-13T03:06:39.095Z,10.23
2017-09-13T03:07:39.094Z,10.2
2017-09-13T03:08:38.778Z,10.15
2017-09-13T03:09:39.084Z,10.18
2017-09-13T03:10:39.075Z,10.25
2017-09-13T03:11:39.060Z,10.22
2017-09-13T03:12:39.048Z,10.18
2017-09-13T03:13:39.032Z,10.23
2017-09-13T03:14:39.026Z,10.2
2017-09-13T03:15:39.020Z,10.15
2017-09-13T03:16:38.703Z,10.17
2017-09-13T03:17:38.997Z,10.25
2017-09-13T03:18:38.996Z,10.18
2017-09-13T03:19:38.990Z,10.18
2017-09-13T03:20:38.963Z,10.23
2017-09-13T03:21:38.976Z,10.23
2017-09-13T03:22:38.956Z,10.23
2017-09-13T03:23:38.955Z,10.17
2017-09-13T03:24:38.928Z,10.17
2017-09-13T03:25:38.932Z,10.29
2017-09-13T03:26:38.912Z,10.23
2017-09-13T03:27:38.915Z,10.3
2017-09-13T03:28:38.897Z,10.25
2017-09-13T03:29:38.591Z,10.29
2017-09-13T03:30:38.576Z,10.34
2017-09-13T03:31:38.579Z,10.15
2017-09-13T03:32:38.561Z,10.32
2017-09-13T03:33:38.871Z,10.29
2017-09-13T03:34:38.546Z,10.25
2017-09-13T03:35:38.832Z,10.2
2017-09-13T03:36:38.537Z,10.22
2017-09-13T03:37:38.520Z,10.23
2017-09-13T03:38:38.812Z,10.2
2017-09-13T03:39:38.187Z,10.22
2017-09-13T03:40:38.787Z,10.26
2017-09-13T03:41:38.485Z,10.18
2017-09-13T03:42:38.784Z,10.22
2017-09-13T03:43:38.812Z,10.2
2017-09-13T03:44:38.761Z,10.29
2017-09-13T03:45:38.766Z,10.17
2017-09-13T03:46:38.749Z,10.12
2017-09-13T03:47:38.747Z,10.25
2017-09-13T03:48:38.768Z,10.23
2017-09-13T03:49:38.728Z,10.18
2017-09-13T03:50:38.400Z,10.22
2017-09-13T03:51:38.427Z,10.2
2017-09-13T03:52:38.695Z,10.17
2017-09-13T03:53:38.373Z,10.11
2017-09-13T03:54:38.675Z,10.11
2017-09-13T03:55:38.352Z,10.09
2017-09-13T03:56:38.349Z,10.12
2017-09-13T03:57:38.352Z,10.04
2017-09-13T03:58:38.632Z,9.96
2017-09-13T03:59:38.641Z,10.04
2017-09-13T04:00:38.619Z,10.02
2017-09-13T04:01:38.306Z,9.9
2017-09-13T04:02:38.605Z,9.99
2017-09-13T04:03:38.598Z,9.91
2017-09-13T04:04:38.589Z,9.97
2017-09-13T04:05:38.581Z,10.01
2017-09-13T04:06:38.578Z,9.89
2017-09-13T04:07:38.553Z,9.93
2017-09-13T04:08:38.545Z,9.99
2017-09-13T04:09:38.552Z,9.87
2017-09-13T04:10:38.542Z,9.81
2017-09-13T04:11:38.563Z,9.87
2017-09-13T04:12:38.210Z,9.89
2017-09-13T04:13:38.516Z,9.86
2017-09-13T04:14:38.500Z,9.83
2017-09-13T04:15:38.503Z,9.84
2017-09-13T04:16:38.482Z,9.9
2017-09-13T04:17:38.479Z,9.91
2017-09-13T04:18:38.162Z,9.9
2017-09-13T04:19:38.454Z,9.87
2017-09-13T04:20:38.452Z,9.84
2017-09-13T04:21:38.434Z,9.79
2017-09-13T04:22:38.679Z,9.83
2017-09-13T04:23:38.420Z,9.86
2017-09-13T04:24:38.418Z,9.91
2017-09-13T04:25:38.095Z,9.93
2017-09-13T04:26:38.095Z,10.01
2017-09-13T04:27:38.390Z,10.02
2017-09-13T04:28:38.057Z,9.97
2017-09-13T04:29:38.054Z,10.07
2017-09-13T04:30:38.364Z,9.91
2017-09-13T04:31:38.364Z,10.01
2017-09-13T04:32:38.342Z,9.99
2017-09-13T04:33:38.332Z,10.11
2017-09-13T04:34:38.333Z,10.08
2017-09-13T04:35:38.326Z,10.11
2017-09-13T04:36:38.304Z,10.2
2017-09-13T04:37:38.302Z,10.15
2017-09-13T04:38:38.293Z,10.29
2017-09-13T04:39:38.279Z,10.3
2017-09-13T04:40:37.954Z,10.3
2017-09-13T04:41:38.262Z,10.34
2017-09-13T04:42:38.267Z,10.47
2017-09-13T04:43:37.930Z,10.47
2017-09-13T04:44:38.236Z,10.6
2017-09-13T04:45:38.223Z,10.51
2017-09-13T04:46:37.897Z,10.63
2017-09-13T04:47:37.896Z,10.66
2017-09-13T04:48:38.199Z,10.74
2017-09-13T04:49:38.210Z,10.73
2017-09-13T04:50:38.189Z,10.84
2017-09-13T04:51:38.181Z,10.99
2017-09-13T04:52:37.864Z,11.09
2017-09-13T04:53:38.405Z,11.09
2017-09-13T04:54:38.159Z,11.17
2017-09-13T04:55:38.140Z,11.24
2017-09-13T04:56:38.133Z,11.21
2017-09-13T04:57:37.811Z,11.25
2017-09-13T04:58:38.129Z,11.36
2017-09-13T04:59:38.110Z,11.44
2017-09-13T05:00:37.475Z,11.46
2017-09-13T05:01:38.082Z,11.61
2017-09-13T05:02:38.085Z,11.69
2017-09-13T05:03:38.073Z,11.78
2017-09-13T05:04:38.067Z,11.91
2017-09-13T05:05:38.059Z,12.14
2017-09-13T05:06:37.745Z,12.1
2017-09-13T05:07:38.040Z,12.23
2017-09-13T05:08:38.033Z,12.41
2017-09-13T05:09:38.018Z,12.42
2017-09-13T05:10:38.026Z,12.56
2017-09-13T05:11:38.008Z,12.74
2017-09-13T05:12:38.006Z,12.9
2017-09-13T05:13:37.999Z,13.1
2017-09-13T05:14:37.997Z,13.25
2017-09-13T05:15:37.989Z,13.46
2017-09-13T05:16:37.986Z,13.62
2017-09-13T05:17:37.974Z,13.82
2017-09-13T05:18:37.971Z,14.06
2017-09-13T05:19:37.969Z,14.21
2017-09-13T05:20:37.950Z,14.35
2017-09-13T05:21:37.955Z,14.28
2017-09-13T05:22:37.945Z,14.4
2017-09-13T05:23:37.619Z,14.46
2017-09-13T05:24:37.611Z,14.47
2017-09-13T05:25:37.615Z,14.46
2017-09-13T05:26:37.924Z,14.39
2017-09-13T05:27:37.910Z,14.25
2017-09-13T05:28:37.902Z,14.36
2017-09-13T05:29:37.896Z,14.22
2017-09-13T05:30:37.903Z,14.25
2017-09-13T05:31:37.569Z,14.29
2017-09-13T05:32:37.896Z,14.29
2017-09-13T05:33:37.557Z,14.22
2017-09-13T05:34:37.252Z,14.18
2017-09-13T05:35:37.877Z,14.21
2017-09-13T05:36:37.860Z,14.04
2017-09-13T05:37:37.549Z,14.1
2017-09-13T05:38:37.845Z,14.06
2017-09-13T05:39:37.835Z,13.97
2017-09-13T05:40:37.525Z,13.97
2017-09-13T05:41:37.523Z,13.95
2017-09-13T05:42:37.522Z,13.96
2017-09-13T05:43:37.818Z,13.95
2017-09-13T05:44:37.807Z,13.89
2017-09-13T05:45:37.808Z,13.91
2017-09-13T05:46:37.494Z,13.92
2017-09-13T05:47:37.794Z,13.82
2017-09-13T05:48:37.486Z,13.95
2017-09-13T05:49:37.466Z,13.85
2017-09-13T05:50:37.471Z,13.89
2017-09-13T05:51:37.465Z,13.91
2017-09-13T05:52:37.455Z,13.87
2017-09-13T05:53:37.755Z,13.87
2017-09-13T05:54:37.440Z,14
2017-09-13T05:55:38.058Z,14.02
2017-09-13T05:56:37.737Z,14.02
2017-09-13T05:57:37.741Z,14.04
2017-09-13T05:58:37.732Z,14.06
2017-09-13T05:59:37.405Z,14.07
2017-09-13T06:00:37.714Z,14.1
2017-09-13T06:01:37.712Z,14.15
2017-09-13T06:02:37.699Z,14.07
2017-09-13T06:03:37.701Z,14.09
2017-09-13T06:04:37.701Z,14.09
2017-09-13T06:05:37.692Z,14.24
2017-09-13T06:06:37.670Z,14.2
2017-09-13T06:07:37.663Z,14.22
2017-09-13T06:08:37.688Z,14.35
2017-09-13T06:09:37.649Z,14.25
2017-09-13T06:10:37.349Z,14.37
2017-09-13T06:11:37.342Z,14.54
2017-09-13T06:12:37.022Z,14.6
2017-09-13T06:13:37.623Z,14.55
2017-09-13T06:14:37.620Z,14.61
2017-09-13T06:15:37.629Z,14.6
2017-09-13T06:16:37.305Z,14.58
2017-09-13T06:17:37.612Z,14.69
2017-09-13T06:18:37.608Z,14.64
2017-09-13T06:19:37.287Z,14.54
2017-09-13T06:20:37.298Z,14.52
2017-09-13T06:21:37.577Z,14.58
2017-09-13T06:22:37.282Z,14.51
2017-09-13T06:23:37.583Z,14.55
2017-09-13T06:24:37.568Z,14.47
2017-09-13T06:25:37.555Z,14.43
2017-09-13T06:26:37.571Z,14.47
2017-09-13T06:27:37.554Z,14.45
2017-09-13T06:28:37.551Z,14.39
2017-09-13T06:29:37.547Z,14.37
2017-09-13T06:30:37.529Z,14.39
2017-09-13T06:31:37.531Z,14.55
2017-09-13T06:32:37.539Z,14.51
2017-09-13T06:33:37.212Z,14.35
2017-09-13T06:34:37.524Z,14.5
2017-09-13T06:35:37.201Z,14.5
2017-09-13T06:36:37.506Z,14.4
2017-09-13T06:37:37.494Z,14.4
2017-09-13T06:38:37.184Z,14.46
2017-09-13T06:39:37.483Z,14.55
2017-09-13T06:40:37.163Z,14.47
2017-09-13T06:41:37.166Z,14.52
2017-09-13T06:42:37.466Z,14.55
2017-09-13T06:43:37.139Z,14.55
2017-09-13T06:44:37.458Z,14.54
2017-09-13T06:45:36.821Z,14.54
2017-09-13T06:46:37.441Z,14.6
2017-09-13T06:47:37.439Z,14.62
2017-09-13T06:48:37.425Z,14.57
2017-09-13T06:49:37.110Z,14.6
2017-09-13T06:50:37.412Z,14.58
2017-09-13T06:51:36.782Z,14.51
2017-09-13T06:52:37.413Z,14.52
2017-09-13T06:53:37.100Z,14.55
2017-09-13T06:54:37.396Z,14.52
2017-09-13T06:55:37.389Z,14.54
2017-09-13T06:56:37.083Z,14.4
2017-09-13T06:57:37.364Z,14.43
2017-09-13T06:58:37.063Z,14.39
2017-09-13T06:59:37.046Z,14.43
2017-09-13T07:00:37.044Z,14.39
2017-09-13T07:01:37.367Z,14.46
2017-09-13T07:02:37.354Z,14.45
2017-09-13T07:03:37.022Z,14.52
2017-09-13T07:04:37.333Z,14.54
2017-09-13T07:05:37.329Z,14.51
2017-09-13T07:06:37.324Z,14.55
2017-09-13T07:07:37.307Z,14.65
2017-09-13T07:08:37.299Z,14.6
2017-09-13T07:09:37.297Z,14.58
2017-09-13T07:10:37.301Z,14.64
2017-09-13T07:11:36.979Z,14.64
2017-09-13T07:12:37.279Z,14.62
2017-09-13T07:13:36.969Z,14.7
2017-09-13T07:14:36.959Z,14.7
2017-09-13T07:15:37.263Z,14.78
2017-09-13T07:16:36.945Z,14.8
2017-09-13T07:17:37.264Z,14.8
2017-09-13T07:18:36.942Z,14.75
2017-09-13T07:19:37.240Z,14.72
2017-09-13T07:20:37.234Z,14.73
2017-09-13T07:21:37.241Z,14.69
2017-09-13T07:22:37.229Z,14.73
2017-09-13T07:23:36.922Z,14.73
2017-09-13T07:24:37.221Z,14.77
2017-09-13T07:25:37.223Z,14.78
2017-09-13T07:26:37.209Z,14.81
2017-09-13T07:27:36.577Z,14.86
2017-09-13T07:28:37.193Z,14.84
2017-09-13T07:29:37.185Z,14.8
2017-09-13T07:30:37.187Z,14.91
2017-09-13T07:31:37.184Z,14.94
2017-09-13T07:32:37.180Z,14.99
2017-09-13T07:33:36.854Z,15.07
2017-09-13T07:34:36.847Z,15.11
2017-09-13T07:35:37.164Z,15.16
2017-09-13T07:36:37.150Z,15.21
2017-09-13T07:37:37.154Z,15.28
2017-09-13T07:38:37.143Z,15.35
2017-09-13T07:39:37.144Z,15.36
2017-09-13T07:40:37.132Z,15.41
2017-09-13T07:41:37.125Z,15.39
2017-09-13T07:42:36.804Z,15.39
2017-09-13T07:43:37.123Z,15.36
2017-09-13T07:44:37.107Z,15.41
2017-09-13T07:45:37.108Z,15.41
2017-09-13T07:46:36.795Z,15.54
2017-09-13T07:47:36.779Z,15.6
2017-09-13T07:48:37.101Z,15.75
2017-09-13T07:49:37.088Z,15.84
2017-09-13T07:50:37.073Z,16
2017-09-13T07:51:36.762Z,15.97
2017-09-13T07:52:36.765Z,16.08
2017-09-13T07:53:36.758Z,16.08
2017-09-13T07:54:37.063Z,16.07
2017-09-13T07:55:37.059Z,16.11
2017-09-13T07:56:37.049Z,16.11
2017-09-13T07:57:37.057Z,16.12
2017-09-13T07:58:37.039Z,16.12
2017-09-13T07:59:37.032Z,16.15
2017-09-13T08:00:37.030Z,16.23
2017-09-13T08:01:37.021Z,16.2
2017-09-13T08:02:37.023Z,16.2
2017-09-13T08:03:37.032Z,16.3
2017-09-13T08:04:37.014Z,16.3
2017-09-13T08:05:36.707Z,16.31
2017-09-13T08:06:37.005Z,16.21
2017-09-13T08:07:36.692Z,16.24
2017-09-13T08:08:36.986Z,16.08
2017-09-13T08:09:36.676Z,16.05
2017-09-13T08:10:37.004Z,15.96
2017-09-13T08:11:36.984Z,16.04
2017-09-13T08:12:36.976Z,15.9
2017-09-13T08:13:36.978Z,15.89
2017-09-13T08:14:36.964Z,15.94
2017-09-13T08:15:36.961Z,15.96
2017-09-13T08:16:36.962Z,15.92
2017-09-13T08:17:36.948Z,15.82
2017-09-13T08:18:36.647Z,15.83
2017-09-13T08:19:36.943Z,15.8
2017-09-13T08:20:36.627Z,15.93
2017-09-13T08:21:36.938Z,15.83
2017-09-13T08:22:36.629Z,15.83
2017-09-13T08:23:36.925Z,15.86
2017-09-13T08:24:36.930Z,15.82
2017-09-13T08:25:36.928Z,15.84
2017-09-13T08:26:36.899Z,15.83
2017-09-13T08:27:36.892Z,15.76
2017-09-13T08:28:36.600Z,15.75
2017-09-13T08:29:36.889Z,15.75
2017-09-13T08:30:36.893Z,15.6
2017-09-13T08:31:36.894Z,15.62
2017-09-13T08:32:36.901Z,15.6
2017-09-13T08:33:36.877Z,15.6
2017-09-13T08:34:36.560Z,15.49
2017-09-13T08:35:36.895Z,15.54
2017-09-13T08:36:36.870Z,15.53
2017-09-13T08:37:36.548Z,15.51
2017-09-13T08:38:36.855Z,15.56
2017-09-13T08:39:36.464Z,15.53
2017-09-13T08:40:36.843Z,15.56
2017-09-13T08:41:37.078Z,15.6
2017-09-13T08:42:36.837Z,15.68
2017-09-13T08:43:36.834Z,15.74
2017-09-13T08:44:36.826Z,15.74
2017-09-13T08:45:36.811Z,15.84
2017-09-13T08:46:37.212Z,16.01
2017-09-13T08:47:36.501Z,16.04
2017-09-13T08:48:36.845Z,15.94
2017-09-13T08:49:36.491Z,16.07
2017-09-13T08:50:36.803Z,16.07
2017-09-13T08:51:36.823Z,15.97
2017-09-13T08:52:36.472Z,16
2017-09-13T08:53:36.783Z,15.94
2017-09-13T08:54:36.464Z,15.92
2017-09-13T08:55:36.754Z,15.78
2017-09-13T08:56:36.147Z,15.82
2017-09-13T08:57:36.455Z,15.84
2017-09-13T08:58:36.438Z,15.72
2017-09-13T08:59:36.743Z,15.71
2017-09-13T09:00:36.738Z,15.71
2017-09-13T09:01:36.736Z,15.59
2017-09-13T09:02:36.730Z,15.54
2017-09-13T09:03:36.731Z,15.44
2017-09-13T09:04:36.730Z,15.39
2017-09-13T09:05:36.726Z,15.41
2017-09-13T09:06:36.721Z,15.43
2017-09-13T09:07:36.648Z,15.38
2017-09-13T09:08:36.072Z,15.39
2017-09-13T09:09:36.695Z,15.36
2017-09-13T09:10:36.678Z,15.38
2017-09-13T09:11:36.679Z,15.38
2017-09-13T09:12:36.921Z,15.34
2017-09-13T09:13:36.681Z,15.49
2017-09-13T09:14:36.672Z,15.41
2017-09-13T09:15:36.668Z,15.43
2017-09-13T09:16:36.344Z,15.41
2017-09-13T09:17:36.650Z,15.5
2017-09-13T09:18:36.333Z,15.53
2017-09-13T09:19:36.645Z,15.62
2017-09-13T09:20:36.641Z,15.6
2017-09-13T09:21:36.629Z,15.64
2017-09-13T09:22:36.347Z,15.75
2017-09-13T09:23:36.313Z,15.76
2017-09-13T09:24:36.621Z,15.83
2017-09-13T09:25:36.620Z,15.68
2017-09-13T09:26:36.290Z,15.82
2017-09-13T09:27:36.601Z,15.84
2017-09-13T09:28:36.535Z,15.8
2017-09-13T09:29:36.283Z,15.94
2017-09-13T09:30:36.577Z,16
2017-09-13T09:31:36.270Z,16
2017-09-13T09:32:36.577Z,16.04
2017-09-13T09:33:36.833Z,16.15
2017-09-13T09:34:36.581Z,16.12
2017-09-13T09:35:36.568Z,16.23
2017-09-13T09:36:35.931Z,16.31
2017-09-13T09:37:36.556Z,16.21
2017-09-13T09:38:36.492Z,16.34
2017-09-13T09:39:35.927Z,16.39
2017-09-13T09:40:36.554Z,16.48
2017-09-13T09:41:36.224Z,16.49
2017-09-13T09:42:36.531Z,16.52
2017-09-13T09:43:36.526Z,16.53
2017-09-13T09:44:36.219Z,16.68
2017-09-13T09:45:36.210Z,16.76
2017-09-13T09:46:36.193Z,16.82
2017-09-13T09:47:36.209Z,16.83
2017-09-13T09:48:36.492Z,16.98
2017-09-13T09:49:36.513Z,17.07
2017-09-13T09:50:36.188Z,17.16
2017-09-13T09:51:36.495Z,17.16
2017-09-13T09:52:36.483Z,17.23
2017-09-13T09:53:36.168Z,17.31
2017-09-13T09:54:36.735Z,17.22
2017-09-13T09:55:36.160Z,17.37
2017-09-13T09:56:36.167Z,17.43
2017-09-13T09:57:36.155Z,17.4
2017-09-13T09:58:36.150Z,17.43
2017-09-13T09:59:37.504Z,17.55
2017-09-13T10:00:36.156Z,17.55
2017-09-13T10:01:36.145Z,17.56
2017-09-13T10:02:35.822Z,17.63
2017-09-13T10:03:36.126Z,17.71
2017-09-13T10:04:35.825Z,17.74
2017-09-13T10:05:36.121Z,17.77
2017-09-13T10:06:36.127Z,17.92
2017-09-13T10:07:35.803Z,18.14
2017-09-13T10:08:36.111Z,18.25
2017-09-13T10:09:36.115Z,18.3
2017-09-13T10:10:36.103Z,18.37
2017-09-13T10:11:36.426Z,18.51
2017-09-13T10:12:36.095Z,18.57
2017-09-13T10:13:36.400Z,18.82
2017-09-13T10:14:36.404Z,18.92
2017-09-13T10:15:36.076Z,19.18
2017-09-13T10:16:36.395Z,19.29
2017-09-13T10:17:36.404Z,19.37
2017-09-13T10:18:36.391Z,19.54
2017-09-13T10:19:36.079Z,19.54
2017-09-13T10:20:36.731Z,19.66
2017-09-13T10:21:36.065Z,19.74
2017-09-13T10:22:36.385Z,19.8
2017-09-13T10:23:36.387Z,19.77
2017-09-13T10:24:36.372Z,19.88
2017-09-13T10:25:36.324Z,19.87
2017-09-13T10:26:36.381Z,19.88
2017-09-13T10:27:36.054Z,20.05
2017-09-13T10:28:36.380Z,20.05
2017-09-13T10:29:36.374Z,20.01
2017-09-13T10:30:36.052Z,19.92
2017-09-13T10:31:36.375Z,19.91
2017-09-13T10:32:36.357Z,19.88
2017-09-13T10:33:36.037Z,19.73
2017-09-13T10:34:36.368Z,19.65
2017-09-13T10:35:36.359Z,19.58
2017-09-13T10:36:36.351Z,19.54
2017-09-13T10:37:36.037Z,19.55
2017-09-13T10:38:36.348Z,19.56
2017-09-13T10:39:36.343Z,19.47
2017-09-13T10:40:36.338Z,19.48
2017-09-13T10:41:36.431Z,19.39
2017-09-13T10:42:36.342Z,19.36
2017-09-13T10:43:36.024Z,19.33
2017-09-13T10:44:36.333Z,19.28
2017-09-13T10:45:36.027Z,19.28
2017-09-13T10:46:36.623Z,19.14
2017-09-13T10:47:36.018Z,19.19
2017-09-13T10:48:36.023Z,19.29
2017-09-13T10:49:36.316Z,19.43
2017-09-13T10:50:36.328Z,19.58
2017-09-13T10:51:36.576Z,19.61
2017-09-13T10:52:36.313Z,19.65
2017-09-13T10:53:36.316Z,19.73
2017-09-13T10:54:36.326Z,19.68
2017-09-13T10:55:36.308Z,19.84
2017-09-13T10:56:35.997Z,19.88
2017-09-13T10:57:36.319Z,19.84
2017-09-13T10:58:35.985Z,19.96
2017-09-13T10:59:36.290Z,19.94
2017-09-13T11:00:35.990Z,19.87
2017-09-13T11:01:36.291Z,19.86
2017-09-13T11:02:36.283Z,19.74
2017-09-13T11:03:35.662Z,19.74
2017-09-13T11:04:36.285Z,19.66
2017-09-13T11:05:36.284Z,19.65
2017-09-13T11:06:36.272Z,19.56
2017-09-13T11:07:36.257Z,19.51
2017-09-13T11:08:35.961Z,19.43
2017-09-13T11:09:36.262Z,19.37
2017-09-13T11:10:36.273Z,19.33
2017-09-13T11:11:35.646Z,19.31
2017-09-13T11:12:36.564Z,19.37
2017-09-13T11:13:35.944Z,19.37
2017-09-13T11:14:35.952Z,19.44
2017-09-13T11:15:36.258Z,19.39
2017-09-13T11:16:36.250Z,19.55
2017-09-13T11:17:36.188Z,19.69
2017-09-13T11:18:36.249Z,19.81
2017-09-13T11:19:36.240Z,20.05
2017-09-13T11:20:36.230Z,20.17
2017-09-13T11:21:35.926Z,20.32
2017-09-13T11:22:35.922Z,20.55
2017-09-13T11:23:36.232Z,20.61
2017-09-13T11:24:36.243Z,20.82
2017-09-13T11:25:36.217Z,21.09
2017-09-13T11:26:36.232Z,21.16
2017-09-13T11:27:36.235Z,21.29
2017-09-13T11:28:35.907Z,21.35
2017-09-13T11:29:36.250Z,21.47
2017-09-13T11:30:35.600Z,21.58
2017-09-13T11:31:35.900Z,21.62
2017-09-13T11:32:36.219Z,21.68
2017-09-13T11:33:36.153Z,21.86
2017-09-13T11:34:36.214Z,21.86
2017-09-13T11:35:36.214Z,21.9
2017-09-13T11:36:35.904Z,21.96
2017-09-13T11:37:36.209Z,22.03
2017-09-13T11:38:36.515Z,22.07
2017-09-13T11:39:36.210Z,22.1
2017-09-13T11:40:36.215Z,22.24
2017-09-13T11:41:35.900Z,22.27
2017-09-13T11:42:36.212Z,22.22
2017-09-13T11:43:36.466Z,22.22
2017-09-13T11:44:36.197Z,22.22
2017-09-13T11:45:36.202Z,22.2
2017-09-13T11:46:36.211Z,22.17
2017-09-13T11:47:36.212Z,22.09
2017-09-13T11:48:36.204Z,21.92
2017-09-13T11:49:35.901Z,21.91
2017-09-13T11:50:36.565Z,21.86
2017-09-13T11:51:36.205Z,21.67
2017-09-13T11:52:35.587Z,21.67
2017-09-13T11:53:36.209Z,21.67
2017-09-13T11:54:36.233Z,21.64
2017-09-13T11:55:35.903Z,21.64
2017-09-13T11:56:36.200Z,21.61
2017-09-13T11:57:35.591Z,21.69
2017-09-13T11:58:36.194Z,21.72
2017-09-13T11:59:36.141Z,21.59
2017-09-13T12:00:36.211Z,21.53
2017-09-13T12:01:36.194Z,21.38
2017-09-13T12:02:36.202Z,21.37
2017-09-13T12:03:36.205Z,21.14
2017-09-13T12:04:36.483Z,21.13
2017-09-13T12:05:36.202Z,20.99
2017-09-13T12:06:35.894Z,20.85
2017-09-13T12:07:36.192Z,20.67
2017-09-13T12:08:36.190Z,20.51
2017-09-13T12:09:36.538Z,20.31
2017-09-13T12:10:35.883Z,20.26
2017-09-13T12:11:36.188Z,20.2
2017-09-13T12:12:35.866Z,20.02
2017-09-13T12:13:35.877Z,20.03
2017-09-13T12:14:36.171Z,19.87
2017-09-13T12:15:36.178Z,19.92
2017-09-13T12:16:36.167Z,19.84
2017-09-13T12:17:36.175Z,19.81
2017-09-13T12:18:36.173Z,19.74
2017-09-13T12:19:35.854Z,19.71
2017-09-13T12:20:35.866Z,19.71
2017-09-13T12:21:35.861Z,19.66
2017-09-13T12:22:36.165Z,19.68
2017-09-13T12:23:35.855Z,19.65
2017-09-13T12:24:35.541Z,19.77
2017-09-13T12:25:36.415Z,19.63
2017-09-13T12:26:36.157Z,19.68
2017-09-13T12:27:36.157Z,19.63
2017-09-13T12:28:35.834Z,19.66
2017-09-13T12:29:35.839Z,19.63
2017-09-13T12:30:36.411Z,19.63
2017-09-13T12:31:35.831Z,19.65
2017-09-13T12:32:36.138Z,19.68
2017-09-13T12:33:36.131Z,19.69
2017-09-13T12:34:36.139Z,19.63
2017-09-13T12:35:35.814Z,19.62
2017-09-13T12:36:36.128Z,19.63
2017-09-13T12:37:36.114Z,19.55
2017-09-13T12:38:36.122Z,19.56
2017-09-13T12:39:36.116Z,19.51
2017-09-13T12:40:35.797Z,19.48
2017-09-13T12:41:36.112Z,19.54
2017-09-13T12:42:36.108Z,19.61
2017-09-13T12:43:36.102Z,19.54
2017-09-13T12:44:36.130Z,19.61
2017-09-13T12:45:36.102Z,19.56
2017-09-13T12:46:36.100Z,19.68
2017-09-13T12:47:36.104Z,19.73
2017-09-13T12:48:36.092Z,19.74
2017-09-13T12:49:35.467Z,19.63
2017-09-13T12:50:35.787Z,19.73
2017-09-13T12:51:36.319Z,19.73
2017-09-13T12:52:36.087Z,19.76
2017-09-13T12:53:35.765Z,19.74
2017-09-13T12:54:36.088Z,19.71
2017-09-13T12:55:35.764Z,19.63
2017-09-13T12:56:36.015Z,19.61
2017-09-13T12:57:35.753Z,19.62
2017-09-13T12:58:36.068Z,19.59
2017-09-13T12:59:36.067Z,19.65